sensor_id;sensor_type;location;lat;lon;timestamp;temperature;humidity
43249;DHT22;29216;51.248;6.808;2023-01-26T00:00:50;0.30;99.90
43249;DHT22;29216;51.248;6.808;2023-01-26T00:03:16;0.40;99.90
43249;DHT22;29216;51.248;6.808;2023-01-26T00:05:42;0.30;99.80
43249;DHT22;29216;51.248;6.808;2023-01-26T00:08:08;0.20;99.90
43249;DHT22;29216;51.248;6.808;2023-01-26T00:10:38;0.10;99.90
43249;DHT22;29216;51.248;6.808;2023-01-26T00:13:05;0.00;99.90
43249;DHT22;29216;51.248;6.808;2023-01-26T00:15:32;-0.10;99.90
43249;DHT22;29216;51.248;6.808;2023-01-26T00:17:58;0.00;99.90
43249;DHT22;29216;51.248;6.808;2023-01-26T00:20:24;0.00;99.90
43249;DHT22;29216;51.248;6.808;2023-01-26T00:22:49;0.00;99.90
43249;DHT22;29216;51.248;6.808;2023-01-26T00:25:15;0.00;99.90
43249;DHT22;29216;51.248;6.808;2023-01-26T00:27:41;0.00;99.90
43249;DHT22;29216;51.248;6.808;2023-01-26T00:30:07;0.00;99.90
43249;DHT22;29216;51.248;6.808;2023-01-26T00:32:34;-0.10;99.90
43249;DHT22;29216;51.248;6.808;2023-01-26T00:35:01;0.10;99.90
43249;DHT22;29216;51.248;6.808;2023-01-26T00:37:26;0.20;99.90
43249;DHT22;29216;51.248;6.808;2023-01-26T00:39:52;0.20;99.90
43249;DHT22;29216;51.248;6.808;2023-01-26T00:42:17;0.20;99.90
43249;DHT22;29216;51.248;6.808;2023-01-26T00:44:43;0.20;99.90
43249;DHT22;29216;51.248;6.808;2023-01-26T00:47:11;0.10;99.90
43249;DHT22;29216;51.248;6.808;2023-01-26T00:49:37;0.10;99.90
43249;DHT22;29216;51.248;6.808;2023-01-26T00:52:02;0.10;99.90
43249;DHT22;29216;51.248;6.808;2023-01-26T00:54:29;0.10;99.90
43249;DHT22;29216;51.248;6.808;2023-01-26T00:56:55;0.10;99.90
43249;DHT22;29216;51.248;6.808;2023-01-26T00:59:21;0.10;99.90
43249;DHT22;29216;51.248;6.808;2023-01-26T01:01:47;0.10;99.90
43249;DHT22;29216;51.248;6.808;2023-01-26T01:04:13;0.10;99.90
43249;DHT22;29216;51.248;6.808;2023-01-26T01:06:39;0.10;99.90
43249;DHT22;29216;51.248;6.808;2023-01-26T01:09:04;0.10;99.90
43249;DHT22;29216;51.248;6.808;2023-01-26T01:11:30;0.10;99.90
43249;DHT22;29216;51.248;6.808;2023-01-26T01:13:56;0.10;99.90
43249;DHT22;29216;51.248;6.808;2023-01-26T01:16:21;0.10;99.90
43249;DHT22;29216;51.248;6.808;2023-01-26T01:18:47;0.10;99.90
43249;DHT22;29216;51.248;6.808;2023-01-26T01:21:14;0.10;99.90
43249;DHT22;29216;51.248;6.808;2023-01-26T01:23:41;0.20;99.90
43249;DHT22;29216;51.248;6.808;2023-01-26T01:26:08;0.20;99.90
43249;DHT22;29216;51.248;6.808;2023-01-26T01:28:35;0.20;99.90
43249;DHT22;29216;51.248;6.808;2023-01-26T01:31:08;0.30;99.90
43249;DHT22;29216;51.248;6.808;2023-01-26T01:33:34;0.40;99.90
43249;DHT22;29216;51.248;6.808;2023-01-26T01:36:02;0.40;99.90
43249;DHT22;29216;51.248;6.808;2023-01-26T01:38:28;0.40;99.90
43249;DHT22;29216;51.248;6.808;2023-01-26T01:40:54;0.40;99.90
43249;DHT22;29216;51.248;6.808;2023-01-26T01:43:21;0.40;99.90
43249;DHT22;29216;51.248;6.808;2023-01-26T01:45:48;0.40;99.90
43249;DHT22;29216;51.248;6.808;2023-01-26T01:50:51;0.60;99.90
43249;DHT22;29216;51.248;6.808;2023-01-26T01:53:20;0.70;99.90
43249;DHT22;29216;51.248;6.808;2023-01-26T01:55:51;0.60;99.90
43249;DHT22;29216;51.248;6.808;2023-01-26T01:58:19;0.60;99.90
43249;DHT22;29216;51.248;6.808;2023-01-26T02:00:44;0.50;99.90
43249;DHT22;29216;51.248;6.808;2023-01-26T02:03:10;0.50;99.90
43249;DHT22;29216;51.248;6.808;2023-01-26T02:05:53;0.50;99.90
43249;DHT22;29216;51.248;6.808;2023-01-26T02:08:25;0.60;99.90
43249;DHT22;29216;51.248;6.808;2023-01-26T02:10:55;0.70;99.90
43249;DHT22;29216;51.248;6.808;2023-01-26T02:13:23;0.60;99.90
43249;DHT22;29216;51.248;6.808;2023-01-26T02:15:50;0.70;99.90
43249;DHT22;29216;51.248;6.808;2023-01-26T02:18:16;0.70;99.90
43249;DHT22;29216;51.248;6.808;2023-01-26T02:20:44;0.60;99.90
43249;DHT22;29216;51.248;6.808;2023-01-26T02:23:49;0.60;99.90
43249;DHT22;29216;51.248;6.808;2023-01-26T02:26:36;0.70;99.90
43249;DHT22;29216;51.248;6.808;2023-01-26T02:29:06;0.70;99.90
43249;DHT22;29216;51.248;6.808;2023-01-26T02:31:32;0.70;99.90
43249;DHT22;29216;51.248;6.808;2023-01-26T02:33:58;0.80;99.90
43249;DHT22;29216;51.248;6.808;2023-01-26T02:36:29;0.80;99.90
43249;DHT22;29216;51.248;6.808;2023-01-26T02:41:39;0.80;99.90
43249;DHT22;29216;51.248;6.808;2023-01-26T02:44:24;0.80;99.90
43249;DHT22;29216;51.248;6.808;2023-01-26T02:46:52;0.80;99.90
43249;DHT22;29216;51.248;6.808;2023-01-26T02:49:17;0.90;99.90
43249;DHT22;29216;51.248;6.808;2023-01-26T02:52:04;0.90;99.90
43249;DHT22;29216;51.248;6.808;2023-01-26T02:54:30;0.90;99.90
43249;DHT22;29216;51.248;6.808;2023-01-26T02:57:14;0.80;99.90
43249;DHT22;29216;51.248;6.808;2023-01-26T02:59:39;0.80;99.90
43249;DHT22;29216;51.248;6.808;2023-01-26T03:02:05;0.80;99.90
43249;DHT22;29216;51.248;6.808;2023-01-26T03:04:31;0.80;99.90
43249;DHT22;29216;51.248;6.808;2023-01-26T03:06:56;0.90;99.90
43249;DHT22;29216;51.248;6.808;2023-01-26T03:09:22;0.90;99.90
43249;DHT22;29216;51.248;6.808;2023-01-26T03:11:48;0.90;99.90
43249;DHT22;29216;51.248;6.808;2023-01-26T03:14:14;1.00;99.90
43249;DHT22;29216;51.248;6.808;2023-01-26T03:16:40;0.90;99.90
43249;DHT22;29216;51.248;6.808;2023-01-26T03:19:08;0.90;99.90
43249;DHT22;29216;51.248;6.808;2023-01-26T03:21:34;0.80;99.90
43249;DHT22;29216;51.248;6.808;2023-01-26T03:24:18;0.80;99.90
43249;DHT22;29216;51.248;6.808;2023-01-26T03:27:10;0.70;99.90
43249;DHT22;29216;51.248;6.808;2023-01-26T03:29:51;0.80;99.90
43249;DHT22;29216;51.248;6.808;2023-01-26T03:32:16;0.80;99.90
43249;DHT22;29216;51.248;6.808;2023-01-26T03:34:42;0.80;99.90
43249;DHT22;29216;51.248;6.808;2023-01-26T03:37:07;0.70;99.90
43249;DHT22;29216;51.248;6.808;2023-01-26T03:39:33;0.80;99.90
43249;DHT22;29216;51.248;6.808;2023-01-26T03:42:17;0.80;99.90
43249;DHT22;29216;51.248;6.808;2023-01-26T03:45:01;0.80;99.90
43249;DHT22;29216;51.248;6.808;2023-01-26T03:47:45;0.80;99.90
43249;DHT22;29216;51.248;6.808;2023-01-26T03:50:29;0.80;99.90
43249;DHT22;29216;51.248;6.808;2023-01-26T03:53:19;0.90;99.90
43249;DHT22;29216;51.248;6.808;2023-01-26T03:56:04;0.80;99.90
43249;DHT22;29216;51.248;6.808;2023-01-26T03:58:56;0.80;99.90
43249;DHT22;29216;51.248;6.808;2023-01-26T04:01:24;0.80;99.90
43249;DHT22;29216;51.248;6.808;2023-01-26T04:03:55;0.70;99.90
43249;DHT22;29216;51.248;6.808;2023-01-26T04:06:44;0.80;99.90
43249;DHT22;29216;51.248;6.808;2023-01-26T04:09:30;0.90;99.90
43249;DHT22;29216;51.248;6.808;2023-01-26T04:11:56;1.00;99.90
43249;DHT22;29216;51.248;6.808;2023-01-26T04:14:21;0.90;99.90
43249;DHT22;29216;51.248;6.808;2023-01-26T04:17:06;0.90;99.90
43249;DHT22;29216;51.248;6.808;2023-01-26T04:19:50;0.90;99.90
43249;DHT22;29216;51.248;6.808;2023-01-26T04:22:35;0.90;99.90
43249;DHT22;29216;51.248;6.808;2023-01-26T04:25:12;1.00;99.90
43249;DHT22;29216;51.248;6.808;2023-01-26T04:27:39;0.90;99.90
43249;DHT22;29216;51.248;6.808;2023-01-26T04:30:06;0.90;99.90
43249;DHT22;29216;51.248;6.808;2023-01-26T04:32:32;0.90;99.90
43249;DHT22;29216;51.248;6.808;2023-01-26T04:34:57;0.90;99.90
43249;DHT22;29216;51.248;6.808;2023-01-26T04:37:23;0.90;99.90
43249;DHT22;29216;51.248;6.808;2023-01-26T04:39:49;0.90;99.90
43249;DHT22;29216;51.248;6.808;2023-01-26T04:42:15;0.90;99.90
43249;DHT22;29216;51.248;6.808;2023-01-26T04:44:40;0.90;99.90
43249;DHT22;29216;51.248;6.808;2023-01-26T04:47:06;0.90;99.90
43249;DHT22;29216;51.248;6.808;2023-01-26T04:49:32;0.90;99.90
43249;DHT22;29216;51.248;6.808;2023-01-26T04:51:57;0.90;99.90
43249;DHT22;29216;51.248;6.808;2023-01-26T04:54:23;0.80;99.90
43249;DHT22;29216;51.248;6.808;2023-01-26T04:56:48;0.80;99.90
43249;DHT22;29216;51.248;6.808;2023-01-26T04:59:16;0.90;99.90
43249;DHT22;29216;51.248;6.808;2023-01-26T05:01:42;0.90;99.90
43249;DHT22;29216;51.248;6.808;2023-01-26T05:04:09;0.90;99.90
43249;DHT22;29216;51.248;6.808;2023-01-26T05:06:35;0.90;99.90
43249;DHT22;29216;51.248;6.808;2023-01-26T05:09:01;0.90;99.90
43249;DHT22;29216;51.248;6.808;2023-01-26T05:11:26;0.90;99.90
43249;DHT22;29216;51.248;6.808;2023-01-26T05:13:52;0.90;99.90
43249;DHT22;29216;51.248;6.808;2023-01-26T05:16:17;1.00;99.90
43249;DHT22;29216;51.248;6.808;2023-01-26T05:18:44;1.00;99.90
43249;DHT22;29216;51.248;6.808;2023-01-26T05:21:10;1.00;99.90
43249;DHT22;29216;51.248;6.808;2023-01-26T05:23:36;0.90;99.90
43249;DHT22;29216;51.248;6.808;2023-01-26T05:26:02;0.80;99.90
43249;DHT22;29216;51.248;6.808;2023-01-26T05:28:28;0.80;99.90
43249;DHT22;29216;51.248;6.808;2023-01-26T05:30:54;0.80;99.90
43249;DHT22;29216;51.248;6.808;2023-01-26T05:33:19;0.80;99.90
43249;DHT22;29216;51.248;6.808;2023-01-26T05:35:50;0.80;99.90
43249;DHT22;29216;51.248;6.808;2023-01-26T05:38:16;0.90;99.90
43249;DHT22;29216;51.248;6.808;2023-01-26T05:40:42;0.80;99.90
43249;DHT22;29216;51.248;6.808;2023-01-26T05:43:07;0.80;99.90
43249;DHT22;29216;51.248;6.808;2023-01-26T05:45:36;0.90;99.90
43249;DHT22;29216;51.248;6.808;2023-01-26T05:48:05;0.80;99.90
43249;DHT22;29216;51.248;6.808;2023-01-26T05:50:30;0.80;99.90
43249;DHT22;29216;51.248;6.808;2023-01-26T05:52:56;0.70;99.90
43249;DHT22;29216;51.248;6.808;2023-01-26T05:55:22;0.80;99.90
43249;DHT22;29216;51.248;6.808;2023-01-26T05:57:48;0.80;99.90
43249;DHT22;29216;51.248;6.808;2023-01-26T06:00:14;0.80;99.90
43249;DHT22;29216;51.248;6.808;2023-01-26T06:02:40;0.70;99.90
43249;DHT22;29216;51.248;6.808;2023-01-26T06:05:06;0.70;99.90
43249;DHT22;29216;51.248;6.808;2023-01-26T06:07:32;0.70;99.90
43249;DHT22;29216;51.248;6.808;2023-01-26T06:09:57;0.70;99.90
43249;DHT22;29216;51.248;6.808;2023-01-26T06:12:23;0.70;99.90
43249;DHT22;29216;51.248;6.808;2023-01-26T06:14:49;0.70;99.90
43249;DHT22;29216;51.248;6.808;2023-01-26T06:17:16;0.70;99.90
43249;DHT22;29216;51.248;6.808;2023-01-26T06:19:42;0.80;99.90
43249;DHT22;29216;51.248;6.808;2023-01-26T06:22:10;0.80;99.90
43249;DHT22;29216;51.248;6.808;2023-01-26T06:24:36;0.80;99.90
43249;DHT22;29216;51.248;6.808;2023-01-26T06:27:02;0.90;99.90
43249;DHT22;29216;51.248;6.808;2023-01-26T06:29:30;0.90;99.90
43249;DHT22;29216;51.248;6.808;2023-01-26T06:31:56;0.90;99.90
43249;DHT22;29216;51.248;6.808;2023-01-26T06:34:21;0.90;99.90
43249;DHT22;29216;51.248;6.808;2023-01-26T06:36:47;1.00;99.90
43249;DHT22;29216;51.248;6.808;2023-01-26T06:39:12;0.90;99.90
43249;DHT22;29216;51.248;6.808;2023-01-26T06:41:39;0.80;99.90
43249;DHT22;29216;51.248;6.808;2023-01-26T06:44:04;0.80;99.90
43249;DHT22;29216;51.248;6.808;2023-01-26T06:46:33;0.80;99.90
43249;DHT22;29216;51.248;6.808;2023-01-26T06:49:01;0.80;99.90
43249;DHT22;29216;51.248;6.808;2023-01-26T06:54:12;0.70;99.90
43249;DHT22;29216;51.248;6.808;2023-01-26T06:56:38;0.70;99.90
43249;DHT22;29216;51.248;6.808;2023-01-26T06:59:04;0.70;99.90
43249;DHT22;29216;51.248;6.808;2023-01-26T07:01:34;0.80;99.90
43249;DHT22;29216;51.248;6.808;2023-01-26T07:04:01;0.80;99.90
43249;DHT22;29216;51.248;6.808;2023-01-26T07:06:27;0.80;99.90
43249;DHT22;29216;51.248;6.808;2023-01-26T07:08:52;0.80;99.90
43249;DHT22;29216;51.248;6.808;2023-01-26T07:11:18;0.90;99.90
43249;DHT22;29216;51.248;6.808;2023-01-26T07:13:45;0.90;99.90
43249;DHT22;29216;51.248;6.808;2023-01-26T07:16:12;0.90;99.90
43249;DHT22;29216;51.248;6.808;2023-01-26T07:18:38;1.00;99.90
43249;DHT22;29216;51.248;6.808;2023-01-26T07:21:06;1.00;99.90
43249;DHT22;29216;51.248;6.808;2023-01-26T07:23:32;1.00;99.90
43249;DHT22;29216;51.248;6.808;2023-01-26T07:25:57;1.00;99.90
43249;DHT22;29216;51.248;6.808;2023-01-26T07:28:24;1.00;99.90
43249;DHT22;29216;51.248;6.808;2023-01-26T07:30:50;1.00;99.90
43249;DHT22;29216;51.248;6.808;2023-01-26T07:33:17;1.00;99.90
43249;DHT22;29216;51.248;6.808;2023-01-26T07:35:42;1.00;99.90
43249;DHT22;29216;51.248;6.808;2023-01-26T07:38:08;1.00;99.90
43249;DHT22;29216;51.248;6.808;2023-01-26T07:40:34;1.00;99.90
43249;DHT22;29216;51.248;6.808;2023-01-26T07:42:59;1.00;99.90
43249;DHT22;29216;51.248;6.808;2023-01-26T07:45:26;1.00;99.90
43249;DHT22;29216;51.248;6.808;2023-01-26T07:47:55;1.00;99.90
43249;DHT22;29216;51.248;6.808;2023-01-26T07:50:21;1.00;99.90
43249;DHT22;29216;51.248;6.808;2023-01-26T07:52:47;1.00;99.90
43249;DHT22;29216;51.248;6.808;2023-01-26T07:55:13;1.20;99.90
43249;DHT22;29216;51.248;6.808;2023-01-26T07:57:39;1.20;99.90
43249;DHT22;29216;51.248;6.808;2023-01-26T08:00:05;1.30;99.90
43249;DHT22;29216;51.248;6.808;2023-01-26T08:02:31;1.30;99.90
43249;DHT22;29216;51.248;6.808;2023-01-26T08:04:57;1.30;99.90
43249;DHT22;29216;51.248;6.808;2023-01-26T08:07:23;1.40;99.90
43249;DHT22;29216;51.248;6.808;2023-01-26T08:09:49;1.40;99.90
43249;DHT22;29216;51.248;6.808;2023-01-26T08:12:14;1.40;99.90
43249;DHT22;29216;51.248;6.808;2023-01-26T08:14:40;1.40;99.90
43249;DHT22;29216;51.248;6.808;2023-01-26T08:17:06;1.50;99.90
43249;DHT22;29216;51.248;6.808;2023-01-26T08:19:32;1.50;99.90
43249;DHT22;29216;51.248;6.808;2023-01-26T08:21:57;1.50;99.90
43249;DHT22;29216;51.248;6.808;2023-01-26T08:24:23;1.50;99.90
43249;DHT22;29216;51.248;6.808;2023-01-26T08:26:49;1.50;99.90
43249;DHT22;29216;51.248;6.808;2023-01-26T08:29:14;1.60;99.90
43249;DHT22;29216;51.248;6.808;2023-01-26T08:31:40;1.70;99.90
43249;DHT22;29216;51.248;6.808;2023-01-26T08:34:05;1.60;99.90
43249;DHT22;29216;51.248;6.808;2023-01-26T08:36:31;1.60;99.90
43249;DHT22;29216;51.248;6.808;2023-01-26T08:38:57;1.70;99.90
43249;DHT22;29216;51.248;6.808;2023-01-26T08:41:22;1.70;99.90
43249;DHT22;29216;51.248;6.808;2023-01-26T08:43:49;1.70;99.90
43249;DHT22;29216;51.248;6.808;2023-01-26T08:46:15;1.80;99.90
43249;DHT22;29216;51.248;6.808;2023-01-26T08:48:41;1.90;99.90
43249;DHT22;29216;51.248;6.808;2023-01-26T08:51:07;1.90;99.90
43249;DHT22;29216;51.248;6.808;2023-01-26T08:53:34;2.00;99.90
43249;DHT22;29216;51.248;6.808;2023-01-26T08:56:01;2.00;99.90
43249;DHT22;29216;51.248;6.808;2023-01-26T08:58:27;2.00;99.90
43249;DHT22;29216;51.248;6.808;2023-01-26T09:00:54;2.00;99.90
43249;DHT22;29216;51.248;6.808;2023-01-26T09:03:20;2.00;99.90
43249;DHT22;29216;51.248;6.808;2023-01-26T09:05:45;2.10;99.90
43249;DHT22;29216;51.248;6.808;2023-01-26T09:08:11;2.10;99.90
43249;DHT22;29216;51.248;6.808;2023-01-26T09:10:37;2.20;99.90
43249;DHT22;29216;51.248;6.808;2023-01-26T09:13:03;2.20;99.90
43249;DHT22;29216;51.248;6.808;2023-01-26T09:15:29;2.20;99.90
43249;DHT22;29216;51.248;6.808;2023-01-26T09:17:55;2.20;99.90
43249;DHT22;29216;51.248;6.808;2023-01-26T09:20:20;2.20;99.90
43249;DHT22;29216;51.248;6.808;2023-01-26T09:22:51;2.20;99.90
43249;DHT22;29216;51.248;6.808;2023-01-26T09:25:20;2.20;99.90
43249;DHT22;29216;51.248;6.808;2023-01-26T09:27:45;2.20;99.90
43249;DHT22;29216;51.248;6.808;2023-01-26T09:30:11;2.20;99.90
43249;DHT22;29216;51.248;6.808;2023-01-26T09:32:37;2.30;99.90
43249;DHT22;29216;51.248;6.808;2023-01-26T09:35:03;2.30;99.90
43249;DHT22;29216;51.248;6.808;2023-01-26T09:37:29;2.30;99.90
43249;DHT22;29216;51.248;6.808;2023-01-26T09:39:54;2.20;99.90
43249;DHT22;29216;51.248;6.808;2023-01-26T09:42:42;2.20;99.90
43249;DHT22;29216;51.248;6.808;2023-01-26T09:50:38;2.10;99.90
43249;DHT22;29216;51.248;6.808;2023-01-26T09:53:14;2.10;99.90
43249;DHT22;29216;51.248;6.808;2023-01-26T09:55:41;2.00;99.90
43249;DHT22;29216;51.248;6.808;2023-01-26T09:58:32;2.00;99.90
43249;DHT22;29216;51.248;6.808;2023-01-26T10:01:00;2.00;99.90
43249;DHT22;29216;51.248;6.808;2023-01-26T10:03:35;2.00;99.90
43249;DHT22;29216;51.248;6.808;2023-01-26T10:08:32;2.10;99.90
43249;DHT22;29216;51.248;6.808;2023-01-26T10:11:02;2.10;99.90
43249;DHT22;29216;51.248;6.808;2023-01-26T10:13:29;2.20;99.90
43249;DHT22;29216;51.248;6.808;2023-01-26T10:16:02;2.30;99.90
43249;DHT22;29216;51.248;6.808;2023-01-26T10:21:31;2.30;99.90
43249;DHT22;29216;51.248;6.808;2023-01-26T10:23:59;2.30;99.90
43249;DHT22;29216;51.248;6.808;2023-01-26T10:26:29;2.30;99.90
43249;DHT22;29216;51.248;6.808;2023-01-26T10:28:56;2.20;99.90
43249;DHT22;29216;51.248;6.808;2023-01-26T10:31:27;2.30;99.90
43249;DHT22;29216;51.248;6.808;2023-01-26T10:34:29;2.40;99.90
43249;DHT22;29216;51.248;6.808;2023-01-26T10:37:25;2.40;99.90
43249;DHT22;29216;51.248;6.808;2023-01-26T10:42:27;2.50;99.90
43249;DHT22;29216;51.248;6.808;2023-01-26T10:44:54;2.50;99.90
43249;DHT22;29216;51.248;6.808;2023-01-26T10:47:20;2.50;99.90
43249;DHT22;29216;51.248;6.808;2023-01-26T10:49:49;2.60;99.90
43249;DHT22;29216;51.248;6.808;2023-01-26T10:52:21;2.60;99.90
43249;DHT22;29216;51.248;6.808;2023-01-26T10:54:49;2.60;99.90
43249;DHT22;29216;51.248;6.808;2023-01-26T11:07:31;2.70;99.90
43249;DHT22;29216;51.248;6.808;2023-01-26T11:09:56;2.70;99.90
43249;DHT22;29216;51.248;6.808;2023-01-26T11:12:40;2.70;99.90
43249;DHT22;29216;51.248;6.808;2023-01-26T11:15:18;2.70;99.90
43249;DHT22;29216;51.248;6.808;2023-01-26T11:17:59;2.80;99.90
43249;DHT22;29216;51.248;6.808;2023-01-26T11:28:49;2.80;99.90
43249;DHT22;29216;51.248;6.808;2023-01-26T11:31:32;2.80;99.90
43249;DHT22;29216;51.248;6.808;2023-01-26T11:44:53;3.10;99.90
43249;DHT22;29216;51.248;6.808;2023-01-26T11:47:55;3.00;99.90
43249;DHT22;29216;51.248;6.808;2023-01-26T11:58:45;3.00;99.90
43249;DHT22;29216;51.248;6.808;2023-01-26T12:01:22;3.00;99.90
43249;DHT22;29216;51.248;6.808;2023-01-26T12:03:53;2.90;99.90
43249;DHT22;29216;51.248;6.808;2023-01-26T12:11:30;2.90;99.90
43249;DHT22;29216;51.248;6.808;2023-01-26T12:22:27;3.10;99.90
43249;DHT22;29216;51.248;6.808;2023-01-26T12:24:59;3.10;99.90
43249;DHT22;29216;51.248;6.808;2023-01-26T12:27:35;3.20;99.90
43249;DHT22;29216;51.248;6.808;2023-01-26T12:32:52;3.20;99.90
43249;DHT22;29216;51.248;6.808;2023-01-26T12:43:38;3.30;99.90
43249;DHT22;29216;51.248;6.808;2023-01-26T12:46:08;3.40;99.90
43249;DHT22;29216;51.248;6.808;2023-01-26T12:48:45;3.40;99.90
43249;DHT22;29216;51.248;6.808;2023-01-26T12:52:01;3.50;99.90
43249;DHT22;29216;51.248;6.808;2023-01-26T12:54:20;3.40;99.90
43249;DHT22;29216;51.248;6.808;2023-01-26T12:56:54;3.40;99.90
43249;DHT22;29216;51.248;6.808;2023-01-26T12:59:33;3.40;99.90
43249;DHT22;29216;51.248;6.808;2023-01-26T13:04:39;3.40;99.90
43249;DHT22;29216;51.248;6.808;2023-01-26T13:07:27;3.30;99.90
43249;DHT22;29216;51.248;6.808;2023-01-26T13:18:53;3.10;99.90
43249;DHT22;29216;51.248;6.808;2023-01-26T13:21:48;3.10;99.90
43249;DHT22;29216;51.248;6.808;2023-01-26T13:26:47;3.20;99.90
43249;DHT22;29216;51.248;6.808;2023-01-26T13:34:45;3.10;99.90
43249;DHT22;29216;51.248;6.808;2023-01-26T13:37:20;3.00;99.90
43249;DHT22;29216;51.248;6.808;2023-01-26T13:39:54;3.00;99.90
43249;DHT22;29216;51.248;6.808;2023-01-26T13:42:38;3.10;99.90
43249;DHT22;29216;51.248;6.808;2023-01-26T13:45:16;3.00;99.90
43249;DHT22;29216;51.248;6.808;2023-01-26T13:47:45;3.00;99.90
43249;DHT22;29216;51.248;6.808;2023-01-26T13:52:50;3.00;99.90
43249;DHT22;29216;51.248;6.808;2023-01-26T13:55:29;3.00;99.90
43249;DHT22;29216;51.248;6.808;2023-01-26T13:58:22;3.00;99.90
43249;DHT22;29216;51.248;6.808;2023-01-26T14:00:58;3.10;99.90
43249;DHT22;29216;51.248;6.808;2023-01-26T14:03:24;3.20;99.90
43249;DHT22;29216;51.248;6.808;2023-01-26T14:06:02;3.20;99.90
43249;DHT22;29216;51.248;6.808;2023-01-26T14:08:30;3.10;99.90
43249;DHT22;29216;51.248;6.808;2023-01-26T14:10:58;3.10;99.90
43249;DHT22;29216;51.248;6.808;2023-01-26T14:13:37;3.10;99.90
43249;DHT22;29216;51.248;6.808;2023-01-26T14:16:05;3.10;99.90
43249;DHT22;29216;51.248;6.808;2023-01-26T14:18:31;3.10;99.90
43249;DHT22;29216;51.248;6.808;2023-01-26T14:21:01;3.20;99.90
43249;DHT22;29216;51.248;6.808;2023-01-26T14:23:33;3.20;99.90
43249;DHT22;29216;51.248;6.808;2023-01-26T14:26:07;3.20;99.90
43249;DHT22;29216;51.248;6.808;2023-01-26T14:28:40;3.20;99.90
43249;DHT22;29216;51.248;6.808;2023-01-26T14:31:20;3.20;99.90
43249;DHT22;29216;51.248;6.808;2023-01-26T14:33:48;3.30;99.90
43249;DHT22;29216;51.248;6.808;2023-01-26T14:36:18;3.20;99.90
43249;DHT22;29216;51.248;6.808;2023-01-26T14:38:49;3.20;99.90
43249;DHT22;29216;51.248;6.808;2023-01-26T14:41:28;3.30;99.90
43249;DHT22;29216;51.248;6.808;2023-01-26T14:43:56;3.30;99.90
43249;DHT22;29216;51.248;6.808;2023-01-26T14:54:56;3.30;99.90
43249;DHT22;29216;51.248;6.808;2023-01-26T14:57:25;3.30;99.90
43249;DHT22;29216;51.248;6.808;2023-01-26T14:59:53;3.30;99.90
43249;DHT22;29216;51.248;6.808;2023-01-26T15:02:34;3.20;99.90
43249;DHT22;29216;51.248;6.808;2023-01-26T15:05:07;3.30;99.90
43249;DHT22;29216;51.248;6.808;2023-01-26T15:07:57;3.30;99.90
43249;DHT22;29216;51.248;6.808;2023-01-26T15:20:46;3.50;99.90
43249;DHT22;29216;51.248;6.808;2023-01-26T15:23:29;3.50;99.90
43249;DHT22;29216;51.248;6.808;2023-01-26T15:26:06;3.50;99.90
43249;DHT22;29216;51.248;6.808;2023-01-26T15:28:33;3.50;99.90
43249;DHT22;29216;51.248;6.808;2023-01-26T15:30:59;3.60;99.90
43249;DHT22;29216;51.248;6.808;2023-01-26T15:33:45;3.60;99.90
43249;DHT22;29216;51.248;6.808;2023-01-26T15:36:32;3.60;99.90
43249;DHT22;29216;51.248;6.808;2023-01-26T15:39:18;3.60;99.90
43249;DHT22;29216;51.248;6.808;2023-01-26T15:41:58;3.60;99.90
43249;DHT22;29216;51.248;6.808;2023-01-26T15:44:26;3.60;99.90
43249;DHT22;29216;51.248;6.808;2023-01-26T15:46:52;3.60;99.90
43249;DHT22;29216;51.248;6.808;2023-01-26T15:49:19;3.60;99.90
43249;DHT22;29216;51.248;6.808;2023-01-26T15:51:47;3.60;99.90
43249;DHT22;29216;51.248;6.808;2023-01-26T15:54:13;3.70;99.90
43249;DHT22;29216;51.248;6.808;2023-01-26T15:56:38;3.70;99.90
43249;DHT22;29216;51.248;6.808;2023-01-26T15:59:04;3.70;99.90
43249;DHT22;29216;51.248;6.808;2023-01-26T16:01:30;3.80;99.90
43249;DHT22;29216;51.248;6.808;2023-01-26T16:03:56;3.80;99.90
43249;DHT22;29216;51.248;6.808;2023-01-26T16:06:29;3.90;99.90
43249;DHT22;29216;51.248;6.808;2023-01-26T16:08:56;3.90;99.90
43249;DHT22;29216;51.248;6.808;2023-01-26T16:11:25;3.90;99.90
43249;DHT22;29216;51.248;6.808;2023-01-26T16:13:52;3.90;99.90
43249;DHT22;29216;51.248;6.808;2023-01-26T16:16:18;3.90;99.90
43249;DHT22;29216;51.248;6.808;2023-01-26T16:18:44;3.90;99.90
43249;DHT22;29216;51.248;6.808;2023-01-26T16:21:20;3.90;99.90
43249;DHT22;29216;51.248;6.808;2023-01-26T16:23:47;4.00;99.90
43249;DHT22;29216;51.248;6.808;2023-01-26T16:26:15;4.00;99.90
43249;DHT22;29216;51.248;6.808;2023-01-26T16:28:41;4.00;99.90
43249;DHT22;29216;51.248;6.808;2023-01-26T16:31:19;4.00;99.90
43249;DHT22;29216;51.248;6.808;2023-01-26T16:33:46;4.00;99.90
43249;DHT22;29216;51.248;6.808;2023-01-26T16:36:13;4.00;99.90
43249;DHT22;29216;51.248;6.808;2023-01-26T16:38:39;4.00;99.90
43249;DHT22;29216;51.248;6.808;2023-01-26T16:41:05;4.10;99.90
43249;DHT22;29216;51.248;6.808;2023-01-26T16:43:32;4.10;99.90
43249;DHT22;29216;51.248;6.808;2023-01-26T16:45:58;4.10;99.90
43249;DHT22;29216;51.248;6.808;2023-01-26T16:48:24;4.10;99.90
43249;DHT22;29216;51.248;6.808;2023-01-26T16:50:51;4.10;99.90
43249;DHT22;29216;51.248;6.808;2023-01-26T16:55:49;4.20;99.90
43249;DHT22;29216;51.248;6.808;2023-01-26T16:58:15;4.30;99.90
43249;DHT22;29216;51.248;6.808;2023-01-26T17:00:41;4.30;99.90
43249;DHT22;29216;51.248;6.808;2023-01-26T17:03:11;4.40;99.90
43249;DHT22;29216;51.248;6.808;2023-01-26T17:05:38;4.40;99.90
43249;DHT22;29216;51.248;6.808;2023-01-26T17:08:04;4.50;99.90
43249;DHT22;29216;51.248;6.808;2023-01-26T17:10:30;4.50;99.90
43249;DHT22;29216;51.248;6.808;2023-01-26T17:12:58;4.60;99.90
43249;DHT22;29216;51.248;6.808;2023-01-26T17:15:24;4.60;99.90
43249;DHT22;29216;51.248;6.808;2023-01-26T17:17:50;4.60;99.90
43249;DHT22;29216;51.248;6.808;2023-01-26T17:20:16;4.60;99.90
43249;DHT22;29216;51.248;6.808;2023-01-26T17:22:42;4.60;99.90
43249;DHT22;29216;51.248;6.808;2023-01-26T17:25:08;4.60;99.90
43249;DHT22;29216;51.248;6.808;2023-01-26T17:27:34;4.60;99.90
43249;DHT22;29216;51.248;6.808;2023-01-26T17:29:59;4.60;99.90
43249;DHT22;29216;51.248;6.808;2023-01-26T17:32:25;4.50;99.90
43249;DHT22;29216;51.248;6.808;2023-01-26T17:34:52;4.50;99.90
43249;DHT22;29216;51.248;6.808;2023-01-26T17:37:18;4.50;99.90
43249;DHT22;29216;51.248;6.808;2023-01-26T17:39:44;4.50;99.90
43249;DHT22;29216;51.248;6.808;2023-01-26T17:42:09;4.50;99.90
43249;DHT22;29216;51.248;6.808;2023-01-26T17:44:35;4.50;99.90
43249;DHT22;29216;51.248;6.808;2023-01-26T17:47:01;4.50;99.90
43249;DHT22;29216;51.248;6.808;2023-01-26T17:49:27;4.60;99.90
43249;DHT22;29216;51.248;6.808;2023-01-26T17:51:52;4.70;99.90
43249;DHT22;29216;51.248;6.808;2023-01-26T17:54:18;4.60;99.90
43249;DHT22;29216;51.248;6.808;2023-01-26T17:56:44;4.60;99.90
43249;DHT22;29216;51.248;6.808;2023-01-26T17:59:10;4.60;99.90
43249;DHT22;29216;51.248;6.808;2023-01-26T18:01:35;4.60;99.90
43249;DHT22;29216;51.248;6.808;2023-01-26T18:04:01;4.60;99.90
43249;DHT22;29216;51.248;6.808;2023-01-26T18:06:27;4.60;99.90